sensor_id;sensor_type;location;lat;lon;timestamp;pressure;altitude;pressure_sealevel;temperature
45701;BMP280;36277;32.852;-116.998;2022-12-04T00:02:20;100279.91;;;25.26
45701;BMP280;36277;32.852;-116.998;2022-12-04T00:04:47;100282.69;;;25.26
45701;BMP280;36277;32.852;-116.998;2022-12-04T00:07:14;100286.31;;;25.26
45701;BMP280;36277;32.852;-116.998;2022-12-04T00:09:40;100287.34;;;25.25
45701;BMP280;36277;32.852;-116.998;2022-12-04T00:12:06;100302.00;;;25.26
45701;BMP280;36277;32.852;-116.998;2022-12-04T00:14:33;100309.25;;;25.27
45701;BMP280;36277;32.852;-116.998;2022-12-04T00:16:59;100299.06;;;25.27
45701;BMP280;36277;32.852;-116.998;2022-12-04T00:19:25;100314.59;;;25.28
45701;BMP280;36277;32.852;-116.998;2022-12-04T00:21:51;100311.84;;;25.28
45701;BMP280;36277;32.852;-116.998;2022-12-04T00:24:18;100313.53;;;25.29
45701;BMP280;36277;32.852;-116.998;2022-12-04T00:26:44;100317.16;;;25.29
45701;BMP280;36277;32.852;-116.998;2022-12-04T00:29:10;100310.56;;;25.30
45701;BMP280;36277;32.852;-116.998;2022-12-04T00:31:36;100321.63;;;25.30
45701;BMP280;36277;32.852;-116.998;2022-12-04T00:34:03;100321.63;;;25.30
45701;BMP280;36277;32.852;-116.998;2022-12-04T00:36:29;100323.34;;;25.31
45701;BMP280;36277;32.852;-116.998;2022-12-04T00:38:58;100332.28;;;25.33
45701;BMP280;36277;32.852;-116.998;2022-12-04T00:41:26;100336.09;;;25.32
45701;BMP280;36277;32.852;-116.998;2022-12-04T00:43:53;100337.16;;;25.31
45701;BMP280;36277;32.852;-116.998;2022-12-04T00:46:19;100340.56;;;25.33
45701;BMP280;36277;32.852;-116.998;2022-12-04T00:48:46;100341.63;;;25.32
45701;BMP280;36277;32.852;-116.998;2022-12-04T00:51:16;100340.56;;;25.33
45701;BMP280;36277;32.852;-116.998;2022-12-04T00:53:43;100336.50;;;25.29
45701;BMP280;36277;32.852;-116.998;2022-12-04T00:56:29;100336.31;;;25.31
45701;BMP280;36277;32.852;-116.998;2022-12-04T00:58:57;100338.59;;;25.27
45701;BMP280;36277;32.852;-116.998;2022-12-04T01:01:26;100329.63;;;25.26
45701;BMP280;36277;32.852;-116.998;2022-12-04T01:03:54;100340.50;;;25.27
45701;BMP280;36277;32.852;-116.998;2022-12-04T01:06:29;100339.47;;;25.28
45701;BMP280;36277;32.852;-116.998;2022-12-04T01:08:57;100344.50;;;25.25
45701;BMP280;36277;32.852;-116.998;2022-12-04T01:11:25;100346.22;;;25.26
45701;BMP280;36277;32.852;-116.998;2022-12-04T01:13:51;100344.50;;;25.25
45701;BMP280;36277;32.852;-116.998;2022-12-04T01:16:20;100350.69;;;25.27
45701;BMP280;36277;32.852;-116.998;2022-12-04T01:18:47;100349.84;;;25.26
45701;BMP280;36277;32.852;-116.998;2022-12-04T01:21:14;100347.09;;;25.26
45701;BMP280;36277;32.852;-116.998;2022-12-04T01:23:41;100356.22;;;25.27
45701;BMP280;36277;32.852;-116.998;2022-12-04T01:26:07;100357.25;;;25.26
45701;BMP280;36277;32.852;-116.998;2022-12-04T01:28:34;100358.13;;;25.26
45701;BMP280;36277;32.852;-116.998;2022-12-04T01:31:03;100345.81;;;25.28
45701;BMP280;36277;32.852;-116.998;2022-12-04T01:33:31;100339.47;;;25.28
45701;BMP280;36277;32.852;-116.998;2022-12-04T01:35:59;100329.63;;;25.26
45701;BMP280;36277;32.852;-116.998;2022-12-04T01:38:26;100338.97;;;25.25
45701;BMP280;36277;32.852;-116.998;2022-12-04T01:40:53;100341.75;;;25.25
45701;BMP280;36277;32.852;-116.998;2022-12-04T01:43:20;100342.78;;;25.24
45701;BMP280;36277;32.852;-116.998;2022-12-04T01:45:54;100348.31;;;25.24
45701;BMP280;36277;32.852;-116.998;2022-12-04T01:49:04;100344.50;;;25.25
45701;BMP280;36277;32.852;-116.998;2022-12-04T01:51:32;100348.75;;;25.21
45701;BMP280;36277;32.852;-116.998;2022-12-04T01:54:10;100358.06;;;25.20
45701;BMP280;36277;32.852;-116.998;2022-12-04T01:59:08;100357.78;;;25.15
45701;BMP280;36277;32.852;-116.998;2022-12-04T02:01:42;100361.22;;;25.17
45701;BMP280;36277;32.852;-116.998;2022-12-04T02:04:11;100369.00;;;25.13
45701;BMP280;36277;32.852;-116.998;2022-12-04T02:06:37;100363.31;;;25.15
45701;BMP280;36277;32.852;-116.998;2022-12-04T02:09:03;100360.34;;;25.16
45701;BMP280;36277;32.852;-116.998;2022-12-04T02:22:59;100364.38;;;25.14
45701;BMP280;36277;32.852;-116.998;2022-12-04T02:28:34;100371.50;;;25.08
45701;BMP280;36277;32.852;-116.998;2022-12-04T02:31:06;100377.03;;;25.08
45701;BMP280;36277;32.852;-116.998;2022-12-04T02:33:56;100377.88;;;25.09
45701;BMP280;36277;32.852;-116.998;2022-12-04T02:36:28;100380.63;;;25.09
45701;BMP280;36277;32.852;-116.998;2022-12-04T02:39:35;100379.31;;;25.05
45701;BMP280;36277;32.852;-116.998;2022-12-04T02:42:13;100377.03;;;25.08
45701;BMP280;36277;32.852;-116.998;2022-12-04T02:44:52;100390.84;;;25.08
45701;BMP280;36277;32.852;-116.998;2022-12-04T02:47:23;100393.59;;;25.08
45701;BMP280;36277;32.852;-116.998;2022-12-04T02:49:59;100387.19;;;25.08
45701;BMP280;36277;32.852;-116.998;2022-12-04T02:53:02;100387.13;;;25.01
45701;BMP280;36277;32.852;-116.998;2022-12-04T02:55:38;100387.59;;;25.05
45701;BMP280;36277;32.852;-116.998;2022-12-04T02:58:30;100376.53;;;25.05
45701;BMP280;36277;32.852;-116.998;2022-12-04T03:00:58;100389.69;;;25.03
45701;BMP280;36277;32.852;-116.998;2022-12-04T03:03:29;100382.94;;;25.05
45701;BMP280;36277;32.852;-116.998;2022-12-04T03:06:01;100382.56;;;25.08
45701;BMP280;36277;32.852;-116.998;2022-12-04T03:08:41;100384.44;;;25.08
45701;BMP280;36277;32.852;-116.998;2022-12-04T03:11:09;100380.44;;;25.10
45701;BMP280;36277;32.852;-116.998;2022-12-04T03:13:44;100392.00;;;25.14
45701;BMP280;36277;32.852;-116.998;2022-12-04T03:16:23;100385.09;;;25.10
45701;BMP280;36277;32.852;-116.998;2022-12-04T03:18:58;100394.44;;;25.09
45701;BMP280;36277;32.852;-116.998;2022-12-04T03:21:29;100394.44;;;25.09
45701;BMP280;36277;32.852;-116.998;2022-12-04T03:24:22;100397.41;;;25.07
45701;BMP280;36277;32.852;-116.998;2022-12-04T03:27:06;100396.75;;;25.05
45701;BMP280;36277;32.852;-116.998;2022-12-04T03:32:15;100397.97;;;25.03
45701;BMP280;36277;32.852;-116.998;2022-12-04T03:35:02;100401.59;;;25.03
45701;BMP280;36277;32.852;-116.998;2022-12-04T03:43:22;100406.47;;;25.01
45701;BMP280;36277;32.852;-116.998;2022-12-04T03:46:02;100407.69;;;24.99
45701;BMP280;36277;32.852;-116.998;2022-12-04T03:51:33;100402.38;;;24.97
45701;BMP280;36277;32.852;-116.998;2022-12-04T03:54:09;100397.69;;;24.98
45701;BMP280;36277;32.852;-116.998;2022-12-04T03:56:50;100407.06;;;24.97
45701;BMP280;36277;32.852;-116.998;2022-12-04T03:59:23;100403.22;;;24.98
45701;BMP280;36277;32.852;-116.998;2022-12-04T04:01:54;100407.88;;;24.97
45701;BMP280;36277;32.852;-116.998;2022-12-04T04:04:30;100411.31;;;24.99
45701;BMP280;36277;32.852;-116.998;2022-12-04T04:07:04;100415.13;;;24.98
45701;BMP280;36277;32.852;-116.998;2022-12-04T04:09:36;100418.09;;;24.97
45701;BMP280;36277;32.852;-116.998;2022-12-04T04:12:11;100418.09;;;24.97
45701;BMP280;36277;32.852;-116.998;2022-12-04T04:14:44;100412.38;;;24.98
45701;BMP280;36277;32.852;-116.998;2022-12-04T04:17:35;100410.88;;;24.96
45701;BMP280;36277;32.852;-116.998;2022-12-04T04:20:54;100411.25;;;24.93
45701;BMP280;36277;32.852;-116.998;2022-12-04T04:23:44;100428.19;;;24.90
45701;BMP280;36277;32.852;-116.998;2022-12-04T04:26:41;100421.63;;;24.91
45701;BMP280;36277;32.852;-116.998;2022-12-04T04:29:09;100418.19;;;24.89
45701;BMP280;36277;32.852;-116.998;2022-12-04T04:42:11;100417.97;;;24.90
45701;BMP280;36277;32.852;-116.998;2022-12-04T04:47:17;100429.25;;;24.89
45701;BMP280;36277;32.852;-116.998;2022-12-04T04:49:48;100426.47;;;24.89
45701;BMP280;36277;32.852;-116.998;2022-12-04T04:52:19;100432.16;;;24.87
45701;BMP280;36277;32.852;-116.998;2022-12-04T04:54:47;100423.03;;;24.87
45701;BMP280;36277;32.852;-116.998;2022-12-04T04:57:23;100429.63;;;24.86
45701;BMP280;36277;32.852;-116.998;2022-12-04T04:59:50;100428.94;;;24.84
45701;BMP280;36277;32.852;-116.998;2022-12-04T05:02:16;100434.47;;;24.84
45701;BMP280;36277;32.852;-116.998;2022-12-04T05:04:42;100443.81;;;24.83
45701;BMP280;36277;32.852;-116.998;2022-12-04T05:07:09;100443.81;;;24.83
45701;BMP280;36277;32.852;-116.998;2022-12-04T05:09:35;100447.59;;;24.82
45701;BMP280;36277;32.852;-116.998;2022-12-04T05:12:01;100444.84;;;24.82
45701;BMP280;36277;32.852;-116.998;2022-12-04T05:14:27;100447.59;;;24.82
45701;BMP280;36277;32.852;-116.998;2022-12-04T05:16:54;100451.41;;;24.81
45701;BMP280;36277;32.852;-116.998;2022-12-04T05:19:20;100450.56;;;24.80
45701;BMP280;36277;32.852;-116.998;2022-12-04T05:22:05;100456.47;;;24.77
45701;BMP280;36277;32.852;-116.998;2022-12-04T05:24:31;100443.72;;;24.76
45701;BMP280;36277;32.852;-116.998;2022-12-04T05:26:57;100459.41;;;24.76
45701;BMP280;36277;32.852;-116.998;2022-12-04T05:29:24;100460.28;;;24.76
45701;BMP280;36277;32.852;-116.998;2022-12-04T05:31:50;100457.69;;;24.75
45701;BMP280;36277;32.852;-116.998;2022-12-04T05:34:16;100462.38;;;24.74
45701;BMP280;36277;32.852;-116.998;2022-12-04T05:36:43;100464.25;;;24.74
45701;BMP280;36277;32.852;-116.998;2022-12-04T05:39:09;100455.97;;;24.74
45701;BMP280;36277;32.852;-116.998;2022-12-04T05:41:35;100456.38;;;24.71
45701;BMP280;36277;32.852;-116.998;2022-12-04T05:44:01;100463.63;;;24.72
45701;BMP280;36277;32.852;-116.998;2022-12-04T05:46:28;100458.28;;;24.70
45701;BMP280;36277;32.852;-116.998;2022-12-04T05:48:54;100461.22;;;24.69
45701;BMP280;36277;32.852;-116.998;2022-12-04T05:51:20;100466.91;;;24.67
45701;BMP280;36277;32.852;-116.998;2022-12-04T05:53:46;100464.38;;;24.66
45701;BMP280;36277;32.852;-116.998;2022-12-04T05:56:13;100459.91;;;24.65
45701;BMP280;36277;32.852;-116.998;2022-12-04T05:58:39;100459.03;;;24.64
45701;BMP280;36277;32.852;-116.998;2022-12-04T06:01:16;100461.22;;;24.69
45701;BMP280;36277;32.852;-116.998;2022-12-04T06:03:43;100455.59;;;24.62
45701;BMP280;36277;32.852;-116.998;2022-12-04T06:06:23;100459.22;;;24.63
45701;BMP280;36277;32.852;-116.998;2022-12-04T06:08:51;100465.97;;;24.60
45701;BMP280;36277;32.852;-116.998;2022-12-04T06:11:22;100463.41;;;24.59
45701;BMP280;36277;32.852;-116.998;2022-12-04T06:13:50;100459.97;;;24.57
45701;BMP280;36277;32.852;-116.998;2022-12-04T06:16:28;100454.28;;;24.58
45701;BMP280;36277;32.852;-116.998;2022-12-04T06:18:58;100459.00;;;24.50
45701;BMP280;36277;32.852;-116.998;2022-12-04T06:21:27;100459.00;;;24.50
45701;BMP280;36277;32.852;-116.998;2022-12-04T06:23:54;100454.03;;;24.45
45701;BMP280;36277;32.852;-116.998;2022-12-04T06:26:21;100455.56;;;24.48
45701;BMP280;36277;32.852;-116.998;2022-12-04T06:28:48;100459.53;;;24.45
45701;BMP280;36277;32.852;-116.998;2022-12-04T06:31:17;100457.66;;;24.46
45701;BMP280;36277;32.852;-116.998;2022-12-04T06:33:44;100462.69;;;24.42
45701;BMP280;36277;32.852;-116.998;2022-12-04T06:36:16;100450.81;;;24.42
45701;BMP280;36277;32.852;-116.998;2022-12-04T06:38:43;100451.84;;;24.41
45701;BMP280;36277;32.852;-116.998;2022-12-04T06:41:12;100445.44;;;24.40
45701;BMP280;36277;32.852;-116.998;2022-12-04T06:43:40;100451.53;;;24.36
45701;BMP280;36277;32.852;-116.998;2022-12-04T06:46:12;100443.94;;;24.38
45701;BMP280;36277;32.852;-116.998;2022-12-04T06:48:39;100450.19;;;24.32
45701;BMP280;36277;32.852;-116.998;2022-12-04T06:51:11;100458.94;;;24.35
45701;BMP280;36277;32.852;-116.998;2022-12-04T06:53:38;100453.16;;;24.30
45701;BMP280;36277;32.852;-116.998;2022-12-04T06:56:07;100454.00;;;24.31
45701;BMP280;36277;32.852;-116.998;2022-12-04T06:58:33;100447.81;;;24.29
45701;BMP280;36277;32.852;-116.998;2022-12-04T07:01:06;100449.53;;;24.30
45701;BMP280;36277;32.852;-116.998;2022-12-04T07:03:32;100449.22;;;24.25
45701;BMP280;36277;32.852;-116.998;2022-12-04T07:06:08;100453.03;;;24.24
45701;BMP280;36277;32.852;-116.998;2022-12-04T07:08:34;100448.75;;;24.21
45701;BMP280;36277;32.852;-116.998;2022-12-04T07:11:01;100442.41;;;24.21
45701;BMP280;36277;32.852;-116.998;2022-12-04T07:13:27;100450.16;;;24.17
45701;BMP280;36277;32.852;-116.998;2022-12-04T07:15:53;100439.34;;;24.16
45701;BMP280;36277;32.852;-116.998;2022-12-04T07:20:45;100444.34;;;24.13
45701;BMP280;36277;32.852;-116.998;2022-12-04T07:23:12;100448.16;;;24.12
45701;BMP280;36277;32.852;-116.998;2022-12-04T07:25:39;100436.28;;;24.11
45701;BMP280;36277;32.852;-116.998;2022-12-04T07:28:06;100432.16;;;24.07
45701;BMP280;36277;32.852;-116.998;2022-12-04T07:30:32;100429.41;;;24.07
45701;BMP280;36277;32.852;-116.998;2022-12-04T07:32:58;100435.28;;;24.04
45701;BMP280;36277;32.852;-116.998;2022-12-04T07:35:25;100432.38;;;24.06
45701;BMP280;36277;32.852;-116.998;2022-12-04T07:37:51;100436.16;;;24.05
45701;BMP280;36277;32.852;-116.998;2022-12-04T07:40:17;100427.22;;;24.03
45701;BMP280;36277;32.852;-116.998;2022-12-04T07:42:43;100430.16;;;24.01
45701;BMP280;36277;32.852;-116.998;2022-12-04T07:45:10;100430.34;;;24.00
45701;BMP280;36277;32.852;-116.998;2022-12-04T07:47:36;100436.53;;;24.02
45701;BMP280;36277;32.852;-116.998;2022-12-04T07:50:04;100436.03;;;23.98
45701;BMP280;36277;32.852;-116.998;2022-12-04T07:52:37;100444.31;;;23.98
45701;BMP280;36277;32.852;-116.998;2022-12-04T07:55:07;100430.72;;;23.97
45701;BMP280;36277;32.852;-116.998;2022-12-04T07:57:34;100445.75;;;23.94
45701;BMP280;36277;32.852;-116.998;2022-12-04T08:00:00;100444.03;;;23.93
45701;BMP280;36277;32.852;-116.998;2022-12-04T08:02:26;100444.41;;;23.90
45701;BMP280;36277;32.852;-116.998;2022-12-04T08:04:53;100448.19;;;23.89
45701;BMP280;36277;32.852;-116.998;2022-12-04T08:07:19;100442.84;;;23.88
45701;BMP280;36277;32.852;-116.998;2022-12-04T08:09:45;100444.94;;;23.86
45701;BMP280;36277;32.852;-116.998;2022-12-04T08:12:11;100445.97;;;23.85
45701;BMP280;36277;32.852;-116.998;2022-12-04T08:14:37;100445.13;;;23.84
45701;BMP280;36277;32.852;-116.998;2022-12-04T08:17:04;100440.84;;;23.82
45701;BMP280;36277;32.852;-116.998;2022-12-04T08:19:30;100431.72;;;23.81
45701;BMP280;36277;32.852;-116.998;2022-12-04T08:21:56;100424.69;;;23.79
45701;BMP280;36277;32.852;-116.998;2022-12-04T08:24:22;100423.81;;;23.78
45701;BMP280;36277;32.852;-116.998;2022-12-04T08:26:49;100427.56;;;23.77
45701;BMP280;36277;32.852;-116.998;2022-12-04T08:29:15;100425.19;;;23.74
45701;BMP280;36277;32.852;-116.998;2022-12-04T08:31:41;100425.38;;;23.73
45701;BMP280;36277;32.852;-116.998;2022-12-04T08:34:07;100430.88;;;23.73
45701;BMP280;36277;32.852;-116.998;2022-12-04T08:36:34;100423.81;;;23.70
45701;BMP280;36277;32.852;-116.998;2022-12-04T08:39:00;100422.31;;;23.68
45701;BMP280;36277;32.852;-116.998;2022-12-04T08:41:27;100427.16;;;23.66
45701;BMP280;36277;32.852;-116.998;2022-12-04T08:43:54;100425.44;;;23.65
45701;BMP280;36277;32.852;-116.998;2022-12-04T08:46:22;100430.09;;;23.64
45701;BMP280;36277;32.852;-116.998;2022-12-04T08:48:48;100427.72;;;23.61
45701;BMP280;36277;32.852;-116.998;2022-12-04T08:51:20;100431.31;;;23.62
45701;BMP280;36277;32.852;-116.998;2022-12-04T08:53:47;100440.81;;;23.59
45701;BMP280;36277;32.852;-116.998;2022-12-04T08:56:13;100433.59;;;23.58
45701;BMP280;36277;32.852;-116.998;2022-12-04T08:58:39;100436.53;;;23.57
45701;BMP280;36277;32.852;-116.998;2022-12-04T09:01:08;100432.06;;;23.56
45701;BMP280;36277;32.852;-116.998;2022-12-04T09:03:35;100432.22;;;23.54
45701;BMP280;36277;32.852;-116.998;2022-12-04T09:06:03;100428.78;;;23.52
45701;BMP280;36277;32.852;-116.998;2022-12-04T09:08:30;100447.41;;;23.50
45701;BMP280;36277;32.852;-116.998;2022-12-04T09:13:33;100435.91;;;23.47
45701;BMP280;36277;32.852;-116.998;2022-12-04T09:16:03;100428.47;;;23.47
45701;BMP280;36277;32.852;-116.998;2022-12-04T09:18:30;100434.38;;;23.44
45701;BMP280;36277;32.852;-116.998;2022-12-04T09:20:58;100428.00;;;23.44
45701;BMP280;36277;32.852;-116.998;2022-12-04T09:23:26;100429.91;;;23.43
45701;BMP280;36277;32.852;-116.998;2022-12-04T09:25:53;100425.44;;;23.42
45701;BMP280;36277;32.852;-116.998;2022-12-04T09:28:19;100435.78;;;23.40
45701;BMP280;36277;32.852;-116.998;2022-12-04T09:30:58;100422.69;;;23.42
45701;BMP280;36277;32.852;-116.998;2022-12-04T09:33:25;100417.91;;;23.36
45701;BMP280;36277;32.852;-116.998;2022-12-04T09:35:51;100422.53;;;23.36
45701;BMP280;36277;32.852;-116.998;2022-12-04T09:38:18;100419.78;;;23.36
45701;BMP280;36277;32.852;-116.998;2022-12-04T09:41:13;100424.09;;;23.38
45701;BMP280;36277;32.852;-116.998;2022-12-04T09:43:53;100420.34;;;23.31
45701;BMP280;36277;32.852;-116.998;2022-12-04T09:46:34;100419.50;;;23.31
45701;BMP280;36277;32.852;-116.998;2022-12-04T09:49:09;100420.69;;;23.28
45701;BMP280;36277;32.852;-116.998;2022-12-04T09:51:37;100420.22;;;23.25
45701;BMP280;36277;32.852;-116.998;2022-12-04T09:54:14;100416.22;;;23.27
45701;BMP280;36277;32.852;-116.998;2022-12-04T09:56:45;100430.53;;;23.23
45701;BMP280;36277;32.852;-116.998;2022-12-04T09:59:18;100428.63;;;23.23
45701;BMP280;36277;32.852;-116.998;2022-12-04T10:04:19;100423.88;;;23.17
45701;BMP280;36277;32.852;-116.998;2022-12-04T10:07:09;100423.88;;;23.17
45701;BMP280;36277;32.852;-116.998;2022-12-04T10:17:46;100432.16;;;23.09
45701;BMP280;36277;32.852;-116.998;2022-12-04T10:25:54;100436.63;;;23.02
45701;BMP280;36277;32.852;-116.998;2022-12-04T10:28:43;100426.50;;;23.03
45701;BMP280;36277;32.852;-116.998;2022-12-04T10:31:14;100431.69;;;22.98
45701;BMP280;36277;32.852;-116.998;2022-12-04T10:33:46;100428.56;;;23.01
45701;BMP280;36277;32.852;-116.998;2022-12-04T10:36:22;100430.44;;;23.00
45701;BMP280;36277;32.852;-116.998;2022-12-04T10:39:02;100429.78;;;22.98
45701;BMP280;36277;32.852;-116.998;2022-12-04T10:42:00;100431.16;;;22.95
45701;BMP280;36277;32.852;-116.998;2022-12-04T10:44:28;100429.84;;;22.91
45701;BMP280;36277;32.852;-116.998;2022-12-04T10:46:59;100432.22;;;22.94
45701;BMP280;36277;32.852;-116.998;2022-12-04T10:49:36;100433.44;;;22.91
45701;BMP280;36277;32.852;-116.998;2022-12-04T10:52:04;100433.63;;;22.90
45701;BMP280;36277;32.852;-116.998;2022-12-04T10:54:32;100430.19;;;22.88
45701;BMP280;36277;32.852;-116.998;2022-12-04T10:57:02;100429.16;;;22.89
45701;BMP280;36277;32.852;-116.998;2022-12-04T10:59:29;100429.50;;;22.86
45701;BMP280;36277;32.852;-116.998;2022-12-04T11:02:20;100429.50;;;22.86
45701;BMP280;36277;32.852;-116.998;2022-12-04T11:04:58;100436.19;;;22.83
45701;BMP280;36277;32.852;-116.998;2022-12-04T11:07:28;100432.59;;;22.83
45701;BMP280;36277;32.852;-116.998;2022-12-04T11:10:06;100440.88;;;22.83
45701;BMP280;36277;32.852;-116.998;2022-12-04T11:12:32;100434.00;;;22.79
45701;BMP280;36277;32.852;-116.998;2022-12-04T11:15:17;100431.09;;;22.80
45701;BMP280;36277;32.852;-116.998;2022-12-04T11:17:43;100429.72;;;22.76
45701;BMP280;36277;32.852;-116.998;2022-12-04T11:20:21;100417.47;;;22.79
45701;BMP280;36277;32.852;-116.998;2022-12-04T11:22:57;100430.41;;;22.78
45701;BMP280;36277;32.852;-116.998;2022-12-04T11:25:32;100426.78;;;22.78
45701;BMP280;36277;32.852;-116.998;2022-12-04T11:28:01;100419.91;;;22.74
45701;BMP280;36277;32.852;-116.998;2022-12-04T11:30:37;100406.00;;;22.75
45701;BMP280;36277;32.852;-116.998;2022-12-04T11:33:33;100406.34;;;22.72
45701;BMP280;36277;32.852;-116.998;2022-12-04T11:36:05;100400.31;;;22.69
45701;BMP280;36277;32.852;-116.998;2022-12-04T11:38:40;100400.69;;;22.66
45701;BMP280;36277;32.852;-116.998;2022-12-04T11:41:25;100399.47;;;22.68
45701;BMP280;36277;32.852;-116.998;2022-12-04T11:43:52;100402.78;;;22.64
45701;BMP280;36277;32.852;-116.998;2022-12-04T11:46:24;100408.97;;;22.66
45701;BMP280;36277;32.852;-116.998;2022-12-04T11:48:51;100404.66;;;22.63
45701;BMP280;36277;32.852;-116.998;2022-12-04T11:51:33;100412.53;;;22.66
45701;BMP280;36277;32.852;-116.998;2022-12-04T11:57:42;100400.88;;;22.56
45701;BMP280;36277;32.852;-116.998;2022-12-04T12:00:17;100412.75;;;22.57
45701;BMP280;36277;32.852;-116.998;2022-12-04T12:10:52;100410.19;;;22.55
45701;BMP280;36277;32.852;-116.998;2022-12-04T12:29:52;100415.03;;;22.45
45701;BMP280;36277;32.852;-116.998;2022-12-04T12:32:58;100409.03;;;22.42
45701;BMP280;36277;32.852;-116.998;2022-12-04T12:38:42;100395.13;;;22.35
45701;BMP280;36277;32.852;-116.998;2022-12-04T12:41:34;100394.28;;;22.35
45701;BMP280;36277;32.852;-116.998;2022-12-04T12:44:11;100402.63;;;22.33
45701;BMP280;36277;32.852;-116.998;2022-12-04T12:47:04;100403.88;;;22.31
45701;BMP280;36277;32.852;-116.998;2022-12-04T12:49:54;100397.50;;;22.30
45701;BMP280;36277;32.852;-116.998;2022-12-04T12:55:12;100395.63;;;22.31
45701;BMP280;36277;32.852;-116.998;2022-12-04T12:57:54;100405.75;;;22.30
45701;BMP280;36277;32.852;-116.998;2022-12-04T13:00:24;100407.16;;;22.26
45701;BMP280;36277;32.852;-116.998;2022-12-04T13:03:02;100403.19;;;22.29
45701;BMP280;36277;32.852;-116.998;2022-12-04T13:05:39;100405.94;;;22.29
45701;BMP280;36277;32.852;-116.998;2022-12-04T13:11:15;100408.19;;;22.25
45701;BMP280;36277;32.852;-116.998;2022-12-04T13:13:51;100403.72;;;22.24
45701;BMP280;36277;32.852;-116.998;2022-12-04T13:16:26;100414.03;;;22.22
45701;BMP280;36277;32.852;-116.998;2022-12-04T13:19:19;100416.78;;;22.22
45701;BMP280;36277;32.852;-116.998;2022-12-04T13:30:22;100432.25;;;22.15
45701;BMP280;36277;32.852;-116.998;2022-12-04T13:35:54;100433.28;;;22.14
45701;BMP280;36277;32.852;-116.998;2022-12-04T13:41:03;100433.81;;;22.10
45701;BMP280;36277;32.852;-116.998;2022-12-04T13:43:50;100445.84;;;22.09
45701;BMP280;36277;32.852;-116.998;2022-12-04T13:46:35;100447.91;;;22.07
45701;BMP280;36277;32.852;-116.998;2022-12-04T13:51:38;100458.00;;;22.06
45701;BMP280;36277;32.852;-116.998;2022-12-04T13:56:49;100464.38;;;22.07
45701;BMP280;36277;32.852;-116.998;2022-12-04T14:02:18;100470.22;;;22.04
45701;BMP280;36277;32.852;-116.998;2022-12-04T14:08:07;100487.41;;;21.98
45701;BMP280;36277;32.852;-116.998;2022-12-04T14:10:45;100497.88;;;21.94
45701;BMP280;36277;32.852;-116.998;2022-12-04T14:13:26;100503.38;;;21.94
45701;BMP280;36277;32.852;-116.998;2022-12-04T14:16:05;100513.34;;;21.95
45701;BMP280;36277;32.852;-116.998;2022-12-04T14:18:34;100505.44;;;21.92
45701;BMP280;36277;32.852;-116.998;2022-12-04T14:21:02;100507.16;;;21.93
45701;BMP280;36277;32.852;-116.998;2022-12-04T14:23:38;100512.47;;;21.95
45701;BMP280;36277;32.852;-116.998;2022-12-04T14:26:22;100514.38;;;21.94
45701;BMP280;36277;32.852;-116.998;2022-12-04T14:28:49;100502.88;;;21.91
45701;BMP280;36277;32.852;-116.998;2022-12-04T14:31:37;100513.19;;;21.89
45701;BMP280;36277;32.852;-116.998;2022-12-04T14:34:23;100519.88;;;21.94
45701;BMP280;36277;32.852;-116.998;2022-12-04T14:36:53;100514.19;;;21.96
45701;BMP280;36277;32.852;-116.998;2022-12-04T14:39:25;100517.97;;;22.03
45701;BMP280;36277;32.852;-116.998;2022-12-04T14:42:03;100523.50;;;22.11
45701;BMP280;36277;32.852;-116.998;2022-12-04T14:44:30;100521.75;;;22.18
45701;BMP280;36277;32.852;-116.998;2022-12-04T14:49:43;100526.63;;;22.40
45701;BMP280;36277;32.852;-116.998;2022-12-04T14:54:51;100534.31;;;22.60
45701;BMP280;36277;32.852;-116.998;2022-12-04T14:57:38;100526.88;;;22.69
45701;BMP280;36277;32.852;-116.998;2022-12-04T15:00:21;100539.44;;;22.79
45701;BMP280;36277;32.852;-116.998;2022-12-04T15:02:51;100526.16;;;22.91
45701;BMP280;36277;32.852;-116.998;2022-12-04T15:05:28;100540.41;;;23.02
45701;BMP280;36277;32.852;-116.998;2022-12-04T15:08:04;100540.03;;;23.13
45701;BMP280;36277;32.852;-116.998;2022-12-04T15:10:33;100540.88;;;23.21
45701;BMP280;36277;32.852;-116.998;2022-12-04T15:13:29;100552.19;;;23.34
45701;BMP280;36277;32.852;-116.998;2022-12-04T15:15:57;100555.06;;;23.41
45701;BMP280;36277;32.852;-116.998;2022-12-04T15:18:23;100552.09;;;23.50
45701;BMP280;36277;32.852;-116.998;2022-12-04T15:23:49;100557.84;;;23.71
45701;BMP280;36277;32.852;-116.998;2022-12-04T15:26:21;100558.16;;;23.84
45701;BMP280;36277;32.852;-116.998;2022-12-04T15:29:00;100563.25;;;23.95
45701;BMP280;36277;32.852;-116.998;2022-12-04T15:31:32;100564.59;;;23.99
45701;BMP280;36277;32.852;-116.998;2022-12-04T15:34:11;100579.00;;;24.09
45701;BMP280;36277;32.852;-116.998;2022-12-04T15:36:45;100571.97;;;24.07
45701;BMP280;36277;32.852;-116.998;2022-12-04T15:39:17;100566.81;;;24.04
45701;BMP280;36277;32.852;-116.998;2022-12-04T15:41:45;100563.75;;;23.99
45701;BMP280;36277;32.852;-116.998;2022-12-04T15:44:28;100561.81;;;23.99
45701;BMP280;36277;32.852;-116.998;2022-12-04T15:46:56;100569.63;;;23.96
45701;BMP280;36277;32.852;-116.998;2022-12-04T15:49:28;100573.41;;;23.95
45701;BMP280;36277;32.852;-116.998;2022-12-04T15:52:15;100576.38;;;23.93
45701;BMP280;36277;32.852;-116.998;2022-12-04T15:54:47;100572.41;;;23.88
45701;BMP280;36277;32.852;-116.998;2022-12-04T15:57:29;100567.41;;;23.91
45701;BMP280;36277;32.852;-116.998;2022-12-04T15:59:59;100568.13;;;23.85
45701;BMP280;36277;32.852;-116.998;2022-12-04T16:02:28;100574.69;;;23.84
45701;BMP280;36277;32.852;-116.998;2022-12-04T16:04:55;100585.22;;;23.81